• Join FlightAware (Why Join?)
  • Login
  • US Flag 
12:29PM EDT


 

Airport Tracker/Info


-or-


 

Live Flight TrackerFlight Track Log ✈ N960DL ✈ 14-Apr-2013 ✈ KBNA - KATL

Flight Track Log - Related Links

Times and Time Zones

All times are in EDT time to prevent confusion due to time zone crossing. See the N960DL flight status page for this flight to view local times or setup timezone preferences in your user account.

Time Position Orientation Groundspeed Altitude Reporting Facility
EDT Latitude Longitude Course Direction KTS MPH feet Rate Location/Type
07:40AM 36.1333 -86.6833 255° West 154 177 1,100  Level Nashville TRACON
07:42AM 36.1094 -86.7961 255° West 214 246 5,200 2,520 Climbing Memphis Center
07:43AM 36.0456 -86.7475 148° Southeast 159 183 8,800 3,000 Climbing Memphis Center
07:44AM 35.9769 -86.6864 144° Southeast 216 249 11,200 2,220 Climbing Memphis Center
07:45AM 35.8978 -86.6183 145° Southeast 334 384 13,300 2,400 Climbing Memphis Center
07:46AM 35.8014 -86.5331 144° Southeast 372 428 16,100 2,460 Climbing Memphis Center
07:47AM 35.7053 -86.4558 147° Southeast 395 455 18,300 2,100 Climbing Memphis Center
07:48AM 35.5306 -86.4144 169° South 422 486 21,500 1,980 Climbing Atlanta Center
07:49AM 35.4103 -86.3806 167° South 435 501 23,300 1,680 Climbing Atlanta Center
07:50AM 35.3119 -86.2836 141° Southeast 435 501 24,900 840 Climbing Atlanta Center
07:51AM 35.2178 -86.1844 139° Southeast 443 510 25,000  Climbing Atlanta Center
07:52AM 35.1336 -86.1011 141° Southeast 448 516 25,000  Level Atlanta Center
07:53AM 35.0392 -86.0047 140° Southeast 442 509 25,000  Level Atlanta Center
07:54AM 34.9486 -85.9139 141° Southeast 442 509 25,000  Level Atlanta Center
07:55AM 34.8542 -85.8208 141° Southeast 442 509 25,000  Level Atlanta Center
07:56AM 34.7636 -85.7303 141° Southeast 437 503 25,000 -120 Level Atlanta Center
07:57AM 34.6708 -85.6350 140° Southeast 437 503 24,800 -900 Descending Atlanta Center
07:58AM 34.5822 -85.5425 139° Southeast 437 503 23,200 -1,620 Descending Atlanta Center
07:59AM 34.4917 -85.4528 141° Southeast 437 503 21,600 -1,740 Descending Atlanta Center
08:00AM 34.4092 -85.3656 139° Southeast 421 484 19,800 -1,920 Descending Atlanta Center
08:01AM 34.3286 -85.2839 140° Southeast 387 445 17,800 -2,100 Descending Atlanta Center
08:02AM 34.2500 -85.2075 141° Southeast 368 423 15,600 -2,100 Descending Atlanta Center
08:03AM 34.1672 -85.1233 140° Southeast 362 417 13,600 -1,320 Descending Atlanta Center
08:04AM 34.1011 -85.0397 134° Southeast 352 405 13,000 -600 Descending Atlanta Center
08:05AM 34.0433 -84.9689 135° Southeast 321 369 12,400 -840 Descending Atlanta Center
08:06AM 33.9792 -84.9031 140° Southeast 305 351 11,400 -1,140 Descending Atlanta Center
08:07AM 33.8978 -84.8997 178° South 283 326 10,200 -1,200 Descending Atlanta Center
08:08AM 33.8206 -84.8964 178° South 278 320 9,000 -1,020 Descending Atlanta Center
08:09AM 33.7497 -84.8783 168° South 273 314 8,200 -1,200 Descending Atlanta Center
08:10AM 33.6789 -84.8600 168° South 273 314 6,600 -1,140 Descending Atlanta Center
08:11AM 33.6353 -84.7972 130° Southeast 245 282 6,000 -600 Descending Atlanta Center
08:12AM 33.6333 -84.7000 91° East 224 258 5,300 -960 Descending Atlanta TRACON
08:13AM 33.6333 -84.6333 90° East 207 238 3,900 -1,200 Descending Atlanta TRACON
08:14AM 33.6333 -84.5833 90° East 184 212 3,100 -900 Descending Atlanta TRACON
08:15AM 33.6333 -84.5167 90° East 164 189 2,100 -840 Descending Atlanta TRACON
08:16AM 33.6333 -84.4667 90° East 122 140 1,400 -720 Descending Atlanta TRACON